Strona główna
METAR-TAF:

METAR-TAF

Lotnisko :

Hartness State Airport

Springfield, Vermont, Stany Zjednoczone

Szerokość geograficzna: 43-20-33N, Długość geograficzna: 072-31-18W, wysokość: 175 m

Aktualna obserwacja pogody

Raport powstał 20 minut temu, godzina 21:54 UTC
Wiatr 14 kt od południowo-południowy zachód w porywach dochodzący do 19 kt
Temperatura 27°C
Wilgotność 58%
Ciśnienie 1013 hPa
Widzialność: 16.1 km
Mało chmury na wysokości 3000 ft

METAR: KVSF 082154Z AUTO 21014G19KT 10SM FEW030 27/18 A2990 RMK AO2 SLP121 T02720183

czas: 18:14 (22:14 UTC)


TAF: brakujący

Obserwacja i prognoza pogody dla ponad 4000 lotnisk (raport METAR i TAF).

Dostępne stacje oznaczono żółtymi i czerwonymi punktami na mapie.

Najedź kursorem aby zobaczyć nazwę stacji.

Kliknij aby zobaczyć obserwacje i prognozy pogody.

Aby zmienić mapę: kliknij na zielony przycisk z czarnym krzyżykiem, aby powiększyć; na zielony przycisk z myślnikiem, aby pomniejszyć; na zielone strzałki, aby przejść do map sąsiednich.


METAR-TAF: